createdAt,value
2023-09-11T00:02:19.859Z,154691.91
2023-09-11T00:04:53.009Z,154685.38
2023-09-11T00:07:23.207Z,154684.09
2023-09-11T00:09:53.406Z,154689.28
2023-09-11T00:12:23.726Z,154693.19
2023-09-11T00:14:53.993Z,154691.91
2023-09-11T00:17:24.376Z,154662.00
2023-09-11T00:19:59.214Z,154608.69
2023-09-11T00:22:29.456Z,154564.41
2023-09-11T00:24:59.621Z,154554.03
2023-09-11T00:27:30.144Z,154564.41
2023-09-11T00:30:00.692Z,154582.63
2023-09-11T00:32:30.972Z,154559.22
2023-09-11T00:35:03.872Z,154561.78
2023-09-11T00:37:34.069Z,154541.00
2023-09-11T00:40:05.384Z,154539.72
2023-09-11T00:42:35.580Z,154476.00
2023-09-11T00:45:05.892Z,154483.81
2023-09-11T00:47:36.605Z,154460.41
2023-09-11T00:50:11.502Z,154505.91
2023-09-11T00:52:43.329Z,154485.13
2023-09-11T00:55:14.004Z,154491.59
2023-09-11T00:57:45.545Z,154499.41
2023-09-11T01:00:18.137Z,154522.84
2023-09-11T01:02:49.492Z,154522.84
2023-09-11T01:05:22.745Z,154513.72
2023-09-11T01:07:53.245Z,154526.69
2023-09-11T01:10:23.689Z,154509.81
2023-09-11T01:12:54.316Z,154507.19
2023-09-11T01:15:25.053Z,154491.59
2023-09-11T01:18:08.380Z,154470.81
2023-09-11T01:21:14.018Z,154482.50
2023-09-11T01:24:03.253Z,154479.91
2023-09-11T01:27:10.407Z,154463.03
2023-09-11T01:29:46.098Z,154486.41
2023-09-11T01:32:19.083Z,154468.25
2023-09-11T01:34:49.305Z,154453.94
2023-09-11T01:37:19.506Z,154417.50
2023-09-11T01:39:51.074Z,154413.66
2023-09-11T01:42:27.593Z,154430.53
2023-09-11T01:45:03.045Z,154426.63
2023-09-11T01:47:36.442Z,154421.41
2023-09-11T01:50:09.135Z,154400.63
2023-09-11T01:52:40.405Z,154399.34
2023-09-11T01:55:12.526Z,154396.72
2023-09-11T01:57:42.836Z,154360.34
2023-09-11T02:00:18.498Z,154365.56
2023-09-11T02:02:53.130Z,154331.75
2023-09-11T02:05:23.417Z,154297.91
2023-09-11T02:07:53.787Z,154268.03
2023-09-11T02:10:23.960Z,154255.06
2023-09-11T02:12:54.153Z,154273.22
2023-09-11T02:15:29.623Z,154270.66
2023-09-11T02:17:59.960Z,154261.56
2023-09-11T02:20:30.256Z,154245.97
2023-09-11T02:23:00.464Z,154245.97
2023-09-11T02:25:30.695Z,154240.78
2023-09-11T02:28:01.233Z,154227.78
2023-09-11T02:30:34.619Z,154253.75
2023-09-11T02:33:04.979Z,154307.03
2023-09-11T02:35:35.417Z,154316.19
2023-09-11T02:38:05.647Z,154238.16
2023-09-11T02:40:35.914Z,154223.88
2023-09-11T02:43:07.834Z,154217.38
2023-09-11T02:45:40.860Z,154247.25
2023-09-11T02:48:11.223Z,154279.75
2023-09-11T02:50:44.073Z,154273.22
2023-09-11T02:53:19.125Z,154299.25
2023-09-11T02:55:49.465Z,154300.53
2023-09-11T02:58:19.885Z,154301.81
2023-09-11T03:00:53.351Z,154303.09
2023-09-11T03:03:26.510Z,154226.50
2023-09-11T03:06:01.565Z,154203.09
2023-09-11T03:08:32.633Z,154199.19
2023-09-11T03:11:11.525Z,154230.41
2023-09-11T03:13:43.583Z,154255.06
2023-09-11T03:16:18.777Z,154266.75
2023-09-11T03:18:56.660Z,154265.47
2023-09-11T03:21:28.322Z,154252.47
2023-09-11T03:23:58.642Z,154249.88
2023-09-11T03:26:28.959Z,154205.72
2023-09-11T03:29:00.175Z,154183.59
2023-09-11T03:31:37.684Z,154191.41
2023-09-11T03:34:08.272Z,154169.31
2023-09-11T03:36:38.674Z,154164.13
2023-09-11T03:39:09.367Z,154205.72
2023-09-11T03:41:40.261Z,154216.09
2023-09-11T03:44:10.637Z,154218.66
2023-09-11T03:46:43.513Z,154201.81
2023-09-11T03:49:13.807Z,154214.81
2023-09-11T03:51:44.107Z,154207.00
2023-09-11T03:54:15.055Z,154216.09
2023-09-11T03:56:45.497Z,154231.69
2023-09-11T03:59:15.799Z,154217.38
2023-09-11T04:01:48.896Z,154225.19
2023-09-11T04:04:19.215Z,154229.06
2023-09-11T04:06:49.527Z,154223.88
2023-09-11T04:09:19.753Z,154213.47
2023-09-11T04:11:50.844Z,154187.50
2023-09-11T04:14:21.183Z,154187.50
2023-09-11T04:16:54.051Z,154191.41
2023-09-11T04:19:24.336Z,154200.53
2023-09-11T04:21:54.569Z,154188.81
2023-09-11T04:24:24.820Z,154199.19
2023-09-11T04:26:55.226Z,154205.72
2023-09-11T04:29:25.592Z,154201.81
2023-09-11T04:31:58.557Z,154205.72
2023-09-11T04:34:28.892Z,154218.66
2023-09-11T04:36:59.283Z,154216.09
2023-09-11T04:39:29.636Z,154213.47
2023-09-11T04:42:00.578Z,154216.09
2023-09-11T04:44:30.962Z,154218.66
2023-09-11T04:47:04.271Z,154223.88
2023-09-11T04:49:34.667Z,154234.25
2023-09-11T04:52:04.899Z,154248.53
2023-09-11T04:54:35.149Z,154243.34
2023-09-11T04:57:05.476Z,154257.66
2023-09-11T04:59:37.111Z,154279.75
2023-09-11T05:02:14.454Z,154305.72
2023-09-11T05:04:47.187Z,154324.00
2023-09-11T05:07:17.673Z,154336.94
2023-09-11T05:09:48.028Z,154349.97
2023-09-11T05:12:18.425Z,154387.63
2023-09-11T05:14:48.737Z,154405.84
2023-09-11T05:17:22.360Z,154430.53
2023-09-11T05:19:52.968Z,154455.22
2023-09-11T05:22:23.175Z,154466.91
2023-09-11T05:24:55.228Z,154538.44
2023-09-11T05:27:26.013Z,154555.31
2023-09-11T05:29:56.366Z,154589.13
2023-09-11T05:32:29.544Z,154619.06
2023-09-11T05:35:02.791Z,154645.06
2023-09-11T05:37:33.007Z,154669.78
2023-09-11T05:40:08.446Z,154702.31
2023-09-11T05:42:38.630Z,154749.13
2023-09-11T05:45:10.633Z,154768.63
2023-09-11T05:47:43.638Z,154794.63
2023-09-11T05:50:16.026Z,154829.75
2023-09-11T05:52:46.224Z,154879.25
2023-09-11T05:55:16.507Z,154902.69
2023-09-11T05:57:46.705Z,154928.69
2023-09-11T06:00:18.243Z,154948.22
2023-09-11T06:02:51.089Z,154982.06
2023-09-11T06:05:21.398Z,155017.22
2023-09-11T06:07:51.588Z,155035.44
2023-09-11T06:10:21.830Z,155065.38
2023-09-11T06:12:52.079Z,155101.88
2023-09-11T06:15:22.624Z,155144.84
2023-09-11T06:17:56.060Z,155176.09
2023-09-11T06:20:26.075Z,155208.63
2023-09-11T06:22:57.228Z,155228.16
2023-09-11T06:25:27.505Z,155265.94
2023-09-11T06:27:58.468Z,155297.19
2023-09-11T06:30:29.154Z,155331.09
2023-09-11T06:33:02.231Z,155383.25
2023-09-11T06:35:32.555Z,155437.97
2023-09-11T06:38:03.059Z,155460.09
2023-09-11T06:40:33.351Z,155492.69
2023-09-11T06:43:03.651Z,155527.88
2023-09-11T06:45:35.903Z,155590.44
2023-09-11T06:48:09.708Z,155658.25
2023-09-11T06:50:41.311Z,155697.38
2023-09-11T06:53:12.061Z,155736.44
2023-09-11T06:55:47.705Z,155795.19
2023-09-11T06:58:18.822Z,155839.53
2023-09-11T07:00:49.682Z,155885.16
2023-09-11T07:03:22.779Z,155916.50
2023-09-11T07:05:53.123Z,155975.22
2023-09-11T07:08:23.344Z,156035.22
2023-09-11T07:10:54.101Z,156062.66
2023-09-11T07:13:24.282Z,156118.75
2023-09-11T07:16:01.719Z,156164.41
2023-09-11T07:18:35.633Z,156206.28
2023-09-11T07:21:05.964Z,156240.16
2023-09-11T07:23:36.396Z,156287.19
2023-09-11T07:26:06.646Z,156335.50
2023-09-11T07:28:37.178Z,156362.94
2023-09-11T07:31:08.234Z,156396.91
2023-09-11T07:33:41.446Z,156434.75
2023-09-11T07:36:11.383Z,156479.16
2023-09-11T07:38:45.975Z,156511.84
2023-09-11T07:41:18.029Z,156545.88
2023-09-11T07:43:52.745Z,156564.13
2023-09-11T07:46:25.623Z,156591.56
2023-09-11T07:49:00.254Z,156629.44
2023-09-11T07:51:30.743Z,156668.63
2023-09-11T07:54:01.550Z,156757.56
2023-09-11T07:56:31.884Z,156783.69
2023-09-11T07:59:02.742Z,156787.59
2023-09-11T08:01:33.005Z,156830.75
2023-09-11T08:04:06.041Z,156893.47
2023-09-11T08:06:36.022Z,156911.84
2023-09-11T08:09:07.432Z,156937.97
2023-09-11T08:11:41.195Z,156953.66
2023-09-11T08:14:11.749Z,156992.88
2023-09-11T08:16:42.032Z,157011.22
2023-09-11T08:19:15.143Z,157042.59
2023-09-11T08:21:45.007Z,157087.09
2023-09-11T08:24:15.427Z,157087.09
2023-09-11T08:26:45.701Z,157098.84
2023-09-11T08:29:16.531Z,157152.47
2023-09-11T08:31:46.686Z,157126.34
2023-09-11T08:34:19.494Z,157156.41
2023-09-11T08:36:49.720Z,157224.47
2023-09-11T08:39:20.004Z,157204.84
2023-09-11T08:41:53.340Z,157250.66
2023-09-11T08:44:23.556Z,157254.59
2023-09-11T08:46:55.998Z,157299.03
2023-09-11T08:49:32.517Z,157367.09
2023-09-11T08:52:06.463Z,157357.94
2023-09-11T08:54:46.977Z,157378.84
2023-09-11T08:57:22.573Z,157414.28
2023-09-11T08:59:57.020Z,157424.75
2023-09-11T09:02:29.264Z,157494.06
2023-09-11T09:05:05.906Z,157503.25
2023-09-11T09:07:37.016Z,157545.16
2023-09-11T09:10:09.366Z,157555.63
2023-09-11T09:12:39.718Z,157529.47
2023-09-11T09:15:11.956Z,157575.31
2023-09-11T09:17:42.882Z,157605.41
2023-09-11T09:20:18.963Z,157619.81
2023-09-11T09:23:00.015Z,157710.16
2023-09-11T09:25:31.300Z,157723.28
2023-09-11T09:28:02.847Z,157786.16
2023-09-11T09:30:34.850Z,157815.00
2023-09-11T09:33:06.952Z,157864.75
2023-09-11T09:35:40.617Z,157834.66
2023-09-11T09:38:11.445Z,157870.00
2023-09-11T09:40:43.853Z,157868.66
2023-09-11T09:43:20.082Z,157936.84
2023-09-11T09:45:50.731Z,157953.84
2023-09-11T09:48:22.975Z,158062.66
2023-09-11T09:51:01.409Z,158019.34
2023-09-11T09:53:34.127Z,157750.81
2023-09-11T09:56:09.270Z,157809.75
2023-09-11T09:58:41.704Z,157965.69
2023-09-11T10:01:14.142Z,158045.66
2023-09-11T10:03:47.840Z,157980.09
2023-09-11T10:06:23.261Z,158119.00
2023-09-11T10:09:09.439Z,158176.75
2023-09-11T10:11:42.051Z,158160.97
2023-09-11T10:14:18.303Z,158063.97
2023-09-11T10:16:50.496Z,157976.16
2023-09-11T10:19:22.059Z,158014.13
2023-09-11T10:21:56.289Z,158058.72
2023-09-11T10:24:26.522Z,158069.19
2023-09-11T10:27:01.532Z,158120.34
2023-09-11T10:29:45.295Z,158069.19
2023-09-11T10:32:22.844Z,158191.16
2023-09-11T10:34:55.637Z,158219.97
2023-09-11T10:37:28.272Z,158119.00
2023-09-11T10:40:00.150Z,158092.81
2023-09-11T10:42:30.790Z,158121.66
2023-09-11T10:45:01.036Z,158134.72
2023-09-11T10:47:31.702Z,158124.25
2023-09-11T10:50:02.607Z,158204.25
2023-09-11T10:52:35.469Z,158200.34
2023-09-11T10:55:06.569Z,158278.97
2023-09-11T10:57:36.913Z,158340.66
2023-09-11T11:00:09.265Z,158344.56
2023-09-11T11:02:39.822Z,158402.28
2023-09-11T11:05:17.032Z,158379.94
2023-09-11T11:07:52.403Z,158349.78
2023-09-11T11:10:25.164Z,158386.53
2023-09-11T11:13:08.071Z,158391.78
2023-09-11T11:15:39.143Z,158370.81
2023-09-11T11:18:11.236Z,158298.63
2023-09-11T11:21:04.644Z,158278.97
2023-09-11T11:23:55.851Z,158344.56
2023-09-11T11:26:27.803Z,158372.13
2023-09-11T11:28:58.132Z,158313.06
2023-09-11T11:31:31.797Z,158336.72
2023-09-11T11:34:03.204Z,158326.22
2023-09-11T11:36:33.971Z,158234.38
2023-09-11T11:39:07.633Z,158234.38
2023-09-11T11:41:41.287Z,158258.00
2023-09-11T11:44:11.814Z,158360.28
2023-09-11T11:46:43.784Z,158394.38
2023-09-11T11:49:14.309Z,158389.13
2023-09-11T11:51:45.707Z,158358.97
2023-09-11T11:54:27.939Z,158383.91
2023-09-11T11:56:59.255Z,158423.25
2023-09-11T11:59:34.849Z,158465.22
2023-09-11T12:02:05.367Z,158467.88
2023-09-11T12:04:47.151Z,158385.19
2023-09-11T12:07:18.189Z,158374.72
2023-09-11T12:09:51.163Z,158345.91
2023-09-11T12:12:21.508Z,158311.75
2023-09-11T12:14:56.619Z,158423.25
2023-09-11T12:17:26.933Z,158441.63
2023-09-11T12:20:15.567Z,158389.13
2023-09-11T12:22:47.204Z,158368.16
2023-09-11T12:25:22.212Z,158452.09
2023-09-11T12:27:52.660Z,158432.44
2023-09-11T12:30:23.244Z,158397.03
2023-09-11T12:32:53.655Z,158399.63
2023-09-11T12:35:35.437Z,158331.47
2023-09-11T12:38:06.223Z,158356.38
2023-09-11T12:40:39.116Z,158393.09
2023-09-11T12:43:09.986Z,158370.81
2023-09-11T12:45:43.444Z,158365.56
2023-09-11T12:48:16.337Z,158360.28
2023-09-11T12:50:48.388Z,158433.72
2023-09-11T12:53:18.681Z,158428.47
2023-09-11T12:55:52.171Z,158424.53
2023-09-11T12:58:22.352Z,158404.88
2023-09-11T13:00:52.810Z,158360.28
2023-09-11T13:03:25.221Z,158358.97
2023-09-11T13:05:56.002Z,158391.78
2023-09-11T13:08:29.480Z,158408.81
2023-09-11T13:11:02.334Z,158383.91
2023-09-11T13:13:43.798Z,158362.94
2023-09-11T13:16:14.204Z,158403.56
2023-09-11T13:18:45.608Z,158373.41
2023-09-11T13:21:15.878Z,158369.47
2023-09-11T13:23:47.004Z,158393.09
2023-09-11T13:26:22.267Z,158400.97
2023-09-11T13:28:52.455Z,158383.91
2023-09-11T13:31:23.113Z,158338.03
2023-09-11T13:33:54.367Z,158365.56
2023-09-11T13:36:25.757Z,158344.56
2023-09-11T13:38:56.156Z,158381.31
2023-09-11T13:41:28.983Z,158307.81
2023-09-11T13:43:59.199Z,158269.78
2023-09-11T13:46:29.519Z,158256.69
2023-09-11T13:48:59.770Z,158280.31
2023-09-11T13:51:30.432Z,158271.13
2023-09-11T13:54:00.668Z,158317.00
2023-09-11T13:56:33.528Z,158336.72
2023-09-11T13:59:04.466Z,158341.97
2023-09-11T14:01:34.745Z,158339.31
2023-09-11T14:04:05.148Z,158306.50
2023-09-11T14:06:35.625Z,158315.69
2023-09-11T14:09:07.175Z,158302.56
2023-09-11T14:11:40.099Z,158302.56
2023-09-11T14:14:10.317Z,158307.81
2023-09-11T14:16:40.564Z,158315.69
2023-09-11T14:19:11.210Z,158271.13
2023-09-11T14:21:41.418Z,158292.09
2023-09-11T14:24:11.629Z,158261.94
2023-09-11T14:26:44.411Z,158285.56
2023-09-11T14:29:14.233Z,158214.72
2023-09-11T14:31:44.673Z,158226.56
2023-09-11T14:34:14.879Z,158229.16
2023-09-11T14:36:45.104Z,158205.59
2023-09-11T14:39:16.741Z,158197.69
2023-09-11T14:41:49.599Z,158178.03
2023-09-11T14:44:19.513Z,158166.22
2023-09-11T14:46:50.321Z,158167.50
2023-09-11T14:49:20.600Z,158149.16
2023-09-11T14:51:50.797Z,158151.78
2023-09-11T14:54:21.153Z,158138.66
2023-09-11T14:56:56.816Z,158132.13
2023-09-11T14:59:33.135Z,158109.81
2023-09-11T15:02:03.960Z,158087.56
2023-09-11T15:04:48.466Z,158082.31
2023-09-11T15:07:21.310Z,158050.88
2023-09-11T15:09:52.147Z,158022.00
2023-09-11T15:12:25.054Z,158033.81
2023-09-11T15:14:55.304Z,158023.31
2023-09-11T15:17:25.578Z,158020.69
2023-09-11T15:19:55.829Z,158002.34
2023-09-11T15:22:26.044Z,158002.34
2023-09-11T15:24:56.257Z,157985.34
2023-09-11T15:27:29.128Z,157965.69
2023-09-11T15:29:59.355Z,157923.72
2023-09-11T15:32:30.492Z,157891.00
2023-09-11T15:35:00.853Z,157893.59
2023-09-11T15:37:33.966Z,157877.88
2023-09-11T15:40:04.289Z,157846.41
2023-09-11T15:42:37.069Z,157825.47
2023-09-11T15:45:07.481Z,157799.22
2023-09-11T15:47:37.855Z,157801.88
2023-09-11T15:50:09.023Z,157787.47
2023-09-11T15:52:39.684Z,157757.34
2023-09-11T15:55:12.792Z,157744.22
2023-09-11T15:57:45.655Z,157715.41
2023-09-11T16:00:17.019Z,157676.13
2023-09-11T16:02:47.428Z,157657.78
2023-09-11T16:05:19.554Z,157636.84
2023-09-11T16:07:49.908Z,157627.66
2023-09-11T16:10:20.210Z,157598.84
2023-09-11T16:12:53.007Z,157580.56
2023-09-11T16:15:25.511Z,157550.38
2023-09-11T16:17:55.964Z,157534.69
2023-09-11T16:20:28.161Z,157496.72
2023-09-11T16:22:58.697Z,157475.78
2023-09-11T16:25:29.012Z,157436.50
2023-09-11T16:28:03.245Z,157418.16
2023-09-11T16:30:33.867Z,157395.91
2023-09-11T16:33:05.044Z,157373.63
2023-09-11T16:35:36.721Z,157320.00
2023-09-11T16:38:07.745Z,157282.03
2023-09-11T16:40:37.983Z,157270.28
2023-09-11T16:43:13.763Z,157227.06
2023-09-11T16:45:44.147Z,157199.59
2023-09-11T16:48:14.498Z,157187.78
2023-09-11T16:50:44.764Z,157147.25
2023-09-11T16:53:15.009Z,157117.19
2023-09-11T16:55:46.361Z,157073.94
2023-09-11T16:58:19.232Z,157004.69
2023-09-11T17:00:49.830Z,156985.06
2023-09-11T17:03:20.155Z,156977.22
2023-09-11T17:05:50.502Z,156968.03
2023-09-11T17:08:24.846Z,156944.56
2023-09-11T17:10:55.138Z,156918.38
2023-09-11T17:13:27.990Z,156873.88
2023-09-11T17:16:00.234Z,156825.53
2023-09-11T17:18:30.842Z,156813.75
2023-09-11T17:21:01.787Z,156774.56
2023-09-11T17:23:32.111Z,156734.03
2023-09-11T17:26:02.860Z,156735.34
2023-09-11T17:28:37.168Z,156693.47
2023-09-11T17:31:07.677Z,156676.50
2023-09-11T17:33:38.219Z,156647.75
2023-09-11T17:36:08.958Z,156613.75
2023-09-11T17:38:39.537Z,156621.63
2023-09-11T17:41:12.621Z,156608.53
2023-09-11T17:43:45.591Z,156595.50
2023-09-11T17:46:17.160Z,156571.97
2023-09-11T17:48:47.671Z,156540.59
2023-09-11T17:51:18.546Z,156537.94
2023-09-11T17:53:49.435Z,156518.34
2023-09-11T17:56:19.922Z,156489.59
2023-09-11T17:58:54.196Z,156475.28
2023-09-11T18:01:24.494Z,156459.56
2023-09-11T18:04:02.286Z,156460.91
2023-09-11T18:06:32.791Z,156445.25
2023-09-11T18:09:08.857Z,156428.25
2023-09-11T18:11:45.024Z,156412.56
2023-09-11T18:14:23.869Z,156391.69
2023-09-11T18:16:54.803Z,156361.66
2023-09-11T18:19:26.134Z,156344.59
2023-09-11T18:21:57.858Z,156336.81
2023-09-11T18:24:28.256Z,156328.94
2023-09-11T18:27:00.965Z,156288.47
2023-09-11T18:29:36.024Z,156268.91
2023-09-11T18:32:07.238Z,156251.94
2023-09-11T18:34:37.695Z,156240.16
2023-09-11T18:37:08.031Z,156236.28
2023-09-11T18:39:38.383Z,156232.38
2023-09-11T18:42:11.614Z,156223.22
2023-09-11T18:44:44.853Z,156195.84
2023-09-11T18:47:18.149Z,156197.13
2023-09-11T18:49:48.015Z,156190.63
2023-09-11T18:52:18.241Z,156172.31
2023-09-11T18:54:49.411Z,156151.41
2023-09-11T18:57:19.734Z,156139.63
2023-09-11T18:59:54.284Z,156126.59
2023-09-11T19:02:26.736Z,156109.59
2023-09-11T19:04:56.858Z,156086.16
2023-09-11T19:07:27.211Z,156069.16
2023-09-11T19:09:57.461Z,156053.50
2023-09-11T19:12:27.708Z,156018.28
2023-09-11T19:15:00.626Z,155992.22
2023-09-11T19:17:33.102Z,155975.22
2023-09-11T19:20:04.314Z,155937.38
2023-09-11T19:22:34.504Z,155973.91
2023-09-11T19:25:05.420Z,155925.59
2023-09-11T19:27:37.938Z,155911.28
2023-09-11T19:30:13.316Z,155913.88
2023-09-11T19:32:43.871Z,155887.78
2023-09-11T19:35:14.515Z,155874.72
2023-09-11T19:37:48.337Z,155844.72
2023-09-11T19:40:21.993Z,155836.94
2023-09-11T19:42:52.183Z,155804.31
2023-09-11T19:47:58.166Z,155776.94
2023-09-11T19:50:28.459Z,155762.56
2023-09-11T19:52:58.763Z,155746.91
2023-09-11T19:55:29.031Z,155746.91
2023-09-11T19:58:00.036Z,155719.50
2023-09-11T20:00:36.353Z,155713.00
2023-09-11T20:03:06.707Z,155685.59
2023-09-11T20:05:36.999Z,155692.16
2023-09-11T20:08:08.162Z,155664.75
2023-09-11T20:10:38.425Z,155662.16
2023-09-11T20:13:09.505Z,155666.03
2023-09-11T20:15:42.567Z,155637.41
2023-09-11T20:18:14.355Z,155626.94
2023-09-11T20:20:45.642Z,155608.72
2023-09-11T20:23:17.005Z,155606.09
2023-09-11T20:25:47.224Z,155585.25
2023-09-11T20:28:17.424Z,155557.91
2023-09-11T20:30:50.448Z,155550.06
2023-09-11T20:33:20.899Z,155555.25
2023-09-11T20:35:51.352Z,155547.41
2023-09-11T20:38:22.944Z,155531.75
2023-09-11T20:40:53.107Z,155516.09
2023-09-11T20:43:23.294Z,155506.97
2023-09-11T20:45:56.245Z,155506.97
2023-09-11T20:48:26.620Z,155490.06
2023-09-11T20:50:58.219Z,155487.44
2023-09-11T20:53:28.433Z,155471.81
2023-09-11T20:55:58.784Z,155447.03
2023-09-11T20:58:29.429Z,155431.41
2023-09-11T21:01:06.808Z,155437.97
2023-09-11T21:03:37.500Z,155444.47
2023-09-11T21:06:11.583Z,155439.25
2023-09-11T21:08:43.178Z,155415.78
2023-09-11T21:11:13.691Z,155406.66
2023-09-11T21:13:43.948Z,155370.19
2023-09-11T21:16:16.807Z,155385.81
2023-09-11T21:18:47.176Z,155377.97
2023-09-11T21:21:17.565Z,155384.53
2023-09-11T21:23:47.905Z,155388.44
2023-09-11T21:26:18.184Z,155367.56
2023-09-11T21:28:48.338Z,155340.22
2023-09-11T21:31:21.172Z,155338.94
2023-09-11T21:33:51.439Z,155338.94
2023-09-11T21:36:22.021Z,155319.34
2023-09-11T21:38:52.858Z,155319.34
2023-09-11T21:41:23.169Z,155315.44
2023-09-11T21:43:53.427Z,155295.91
2023-09-11T21:46:26.356Z,155263.31
2023-09-11T21:48:56.657Z,155269.84
2023-09-11T21:51:26.917Z,155259.44
2023-09-11T21:54:11.789Z,155271.16
2023-09-11T21:56:44.999Z,155271.16
2023-09-11T21:59:15.242Z,155246.41
2023-09-11T22:01:48.140Z,155269.84
2023-09-11T22:04:18.412Z,155272.44
2023-09-11T22:06:48.670Z,155259.44
2023-09-11T22:09:19.004Z,155209.94
2023-09-11T22:11:49.176Z,155170.88
2023-09-11T22:14:20.218Z,155182.59
2023-09-11T22:16:53.008Z,155203.41
2023-09-11T22:19:23.162Z,155183.88
2023-09-11T22:21:53.356Z,155150.06
2023-09-11T22:24:23.581Z,155152.63
2023-09-11T22:26:56.250Z,155144.84
2023-09-11T22:29:27.676Z,155129.22
2023-09-11T22:32:00.630Z,155138.31
2023-09-11T22:34:31.096Z,155133.09
2023-09-11T22:37:03.181Z,155118.78
2023-09-11T22:39:34.773Z,155116.19
2023-09-11T22:42:05.258Z,155086.22
2023-09-11T22:44:36.219Z,155071.88
2023-09-11T22:47:09.113Z,155074.50
2023-09-11T22:49:39.309Z,155094.03
2023-09-11T22:52:10.873Z,155067.97
2023-09-11T22:54:41.064Z,155026.34
2023-09-11T22:57:11.966Z,155040.66
2023-09-11T22:59:42.159Z,155067.97
2023-09-11T23:02:17.219Z,155047.16
2023-09-11T23:04:47.479Z,155051.06
2023-09-11T23:07:17.829Z,155031.53
2023-09-11T23:09:52.791Z,155025.03
2023-09-11T23:12:23.092Z,155034.13
2023-09-11T23:14:53.522Z,155025.03
2023-09-11T23:17:26.467Z,155018.50
2023-09-11T23:19:56.691Z,155010.72
2023-09-11T23:22:27.519Z,154997.69
2023-09-11T23:24:57.753Z,154998.97
2023-09-11T23:27:28.048Z,154965.16
2023-09-11T23:29:58.532Z,154982.06
2023-09-11T23:32:31.497Z,155009.38
2023-09-11T23:35:01.771Z,155004.19
2023-09-11T23:37:34.188Z,155043.22
2023-09-11T23:40:05.356Z,155032.81
2023-09-11T23:42:36.063Z,155041.94
2023-09-11T23:45:06.995Z,155088.78
2023-09-11T23:47:40.014Z,155142.22
2023-09-11T23:50:12.893Z,155199.53
2023-09-11T23:52:43.094Z,155199.53
2023-09-11T23:55:13.908Z,155204.75
2023-09-11T23:57:44.142Z,155237.28
